Time;durP1;ratioP1;P1;durP2;ratioP2;P2;SDS_P1;SDS_P2;PMS_P1;PMS_P2;Temp;Humidity;BMP_temperature;BMP_pressure;BME280_temperature;BME280_humidity;BME280_pressure;Samples;Min_cycle;Max_cycle;Signal;HPM_P1;HPM_P2
2023/07/24 00:01:29;;;;;;;1.80;1.60;;;24.10;79.30;;;;;;5104671;28;20182;-90
2023/07/24 00:03:56;;;;;;;2.20;1.50;;;24.10;79.40;;;;;;5105315;28;20193;-89
2023/07/24 00:06:21;;;;;;;1.80;1.30;;;24.10;80.00;;;;;;5103020;28;20207;-89
2023/07/24 00:08:48;;;;;;;1.83;1.50;;;24.10;79.50;;;;;;5106359;28;20178;-90
2023/07/24 00:11:13;;;;;;;1.70;1.50;;;24.10;79.20;;;;;;5104336;28;20860;-90
2023/07/24 00:13:39;;;;;;;1.70;1.60;;;24.10;78.80;;;;;;5108779;28;20194;-89
2023/07/24 00:16:08;;;;;;;2.43;1.87;;;24.10;79.20;;;;;;5070628;28;20190;-89
2023/07/24 00:18:34;;;;;;;1.70;1.50;;;24.10;79.00;;;;;;5106046;28;20170;-90
2023/07/24 00:21:00;;;;;;;1.87;1.60;;;24.10;78.90;;;;;;5099172;28;20483;-89
2023/07/24 00:23:26;;;;;;;2.17;1.80;;;24.10;78.80;;;;;;5102737;28;20182;-89
2023/07/24 00:25:52;;;;;;;1.57;1.47;;;24.10;79.00;;;;;;5100307;28;20320;-89
2023/07/24 00:28:17;;;;;;;2.90;1.73;;;24.00;83.60;;;;;;5109182;28;20286;-89
2023/07/24 00:30:43;;;;;;;2.20;1.90;;;24.00;82.60;;;;;;5102362;28;20179;-90
2023/07/24 00:33:09;;;;;;;1.73;1.63;;;24.00;80.30;;;;;;5105525;28;20865;-89
2023/07/24 00:35:34;;;;;;;1.73;1.63;;;24.00;79.90;;;;;;5103573;28;20273;-89
2023/07/24 00:38:00;;;;;;;1.80;1.57;;;24.00;79.70;;;;;;5105568;28;20175;-89
2023/07/24 00:40:26;;;;;;;1.83;1.60;;;24.00;79.80;;;;;;5104150;28;20218;-89
2023/07/24 00:42:51;;;;;;;1.53;1.40;;;24.10;80.30;;;;;;5105610;28;20178;-90
2023/07/24 00:45:17;;;;;;;1.83;1.50;;;24.10;80.00;;;;;;5103108;28;20505;-90
2023/07/24 00:47:43;;;;;;;2.10;1.63;;;24.00;82.20;;;;;;5104681;28;20183;-89
2023/07/24 00:50:12;;;;;;;3.80;1.80;;;24.00;82.90;;;;;;5104564;28;20185;-89
2023/07/24 00:52:38;;;;;;;1.70;1.60;;;23.90;84.20;;;;;;5107052;28;20175;-89
2023/07/24 00:55:04;;;;;;;1.93;1.73;;;23.70;86.90;;;;;;5102892;28;20368;-89
2023/07/24 00:57:30;;;;;;;2.50;1.43;;;23.80;84.90;;;;;;5104704;28;20449;-89
2023/07/24 00:59:56;;;;;;;2.43;1.77;;;23.80;87.40;;;;;;5103348;28;20369;-89
2023/07/24 01:02:21;;;;;;;2.07;1.77;;;23.60;89.60;;;;;;5104594;28;20175;-90
2023/07/24 01:04:47;;;;;;;2.17;1.97;;;23.40;89.50;;;;;;5107872;28;20212;-89
2023/07/24 01:07:13;;;;;;;1.90;1.70;;;23.40;89.30;;;;;;5102958;28;20429;-90
2023/07/24 01:09:38;;;;;;;2.07;1.87;;;23.30;90.60;;;;;;5101654;28;20471;-89
2023/07/24 01:12:19;;;;;;;2.90;1.90;;;23.20;90.80;;;;;;5102359;28;20186;-89
2023/07/24 01:14:49;;;;;;;2.13;1.80;;;23.10;90.90;;;;;;5103369;28;20190;-89
2023/07/24 01:17:20;;;;;;;2.50;2.03;;;23.10;91.20;;;;;;5104904;28;20174;-89
2023/07/24 01:19:54;;;;;;;2.10;1.90;;;23.10;91.20;;;;;;5105480;28;20504;-86
2023/07/24 01:22:29;;;;;;;2.43;2.00;;;22.90;91.20;;;;;;5101432;28;20186;-86
2023/07/24 01:25:06;;;;;;;2.40;2.20;;;22.70;92.50;;;;;;5102944;28;20506;-87
2023/07/24 01:27:35;;;;;;;2.37;1.90;;;22.60;93.20;;;;;;5104550;28;20188;-86
2023/07/24 01:30:01;;;;;;;2.17;1.93;;;22.40;94.00;;;;;;5102306;28;20282;-86
2023/07/24 01:32:26;;;;;;;4.87;2.10;;;22.20;94.20;;;;;;5103984;28;20311;-87
2023/07/24 01:34:54;;;;;;;3.17;2.10;;;22.10;94.50;;;;;;5101712;28;20195;-87
2023/07/24 01:37:22;;;;;;;3.60;2.17;;;22.10;95.20;;;;;;5105592;28;20190;-87
2023/07/24 01:39:48;;;;;;;2.97;1.83;;;21.90;95.80;;;;;;5098107;28;20206;-87
2023/07/24 01:42:14;;;;;;;2.30;2.10;;;22.00;95.30;;;;;;5102507;28;20213;-87
2023/07/24 01:44:40;;;;;;;2.73;2.20;;;22.10;95.70;;;;;;5105451;28;20205;-88
2023/07/24 01:47:06;;;;;;;2.20;2.00;;;22.10;95.50;;;;;;5103760;28;20174;-87
2023/07/24 01:49:31;;;;;;;2.53;2.00;;;22.30;95.70;;;;;;5100770;28;20580;-87
2023/07/24 01:51:57;;;;;;;2.20;2.00;;;22.30;95.60;;;;;;5101465;28;20257;-87
2023/07/24 01:54:23;;;;;;;2.40;2.20;;;22.30;96.10;;;;;;5103741;28;20430;-87
2023/07/24 01:56:49;;;;;;;2.13;1.93;;;21.90;96.90;;;;;;5101813;28;20201;-87
2023/07/24 01:59:15;;;;;;;2.20;2.00;;;21.90;97.40;;;;;;5099825;28;20500;-88
2023/07/24 02:01:41;;;;;;;2.30;2.10;;;22.10;97.20;;;;;;5101769;28;20175;-87
2023/07/24 02:04:07;;;;;;;2.97;2.07;;;22.10;97.00;;;;;;5100833;28;20179;-87
2023/07/24 02:06:33;;;;;;;3.10;2.00;;;22.10;97.50;;;;;;5097977;28;20198;-87
2023/07/24 02:08:59;;;;;;;2.73;2.40;;;22.00;97.40;;;;;;5103179;28;20845;-86
2023/07/24 02:11:25;;;;;;;3.53;2.20;;;21.80;97.70;;;;;;5103126;28;20436;-87
2023/07/24 02:13:51;;;;;;;4.23;2.20;;;21.80;98.40;;;;;;5103044;28;20171;-86
2023/07/24 02:16:16;;;;;;;2.60;2.20;;;21.70;98.90;;;;;;5101988;28;20182;-87
2023/07/24 02:18:43;;;;;;;4.47;2.00;;;21.80;98.90;;;;;;5102231;28;20324;-87
2023/07/24 02:21:09;;;;;;;2.23;2.00;;;21.70;99.30;;;;;;5102111;28;20653;-87
2023/07/24 02:23:35;;;;;;;2.63;2.27;;;21.90;98.70;;;;;;5099618;28;20216;-86
2023/07/24 02:26:01;;;;;;;2.30;2.10;;;22.00;98.80;;;;;;5097868;28;20603;-86
2023/07/24 02:28:27;;;;;;;2.87;2.30;;;21.90;99.40;;;;;;5104371;28;20174;-86
2023/07/24 02:30:56;;;;;;;4.03;2.50;;;21.90;99.30;;;;;;5099821;28;20183;-86
2023/07/24 02:33:22;;;;;;;3.40;2.47;;;21.80;99.70;;;;;;5103157;28;20463;-86
2023/07/24 02:35:51;;;;;;;4.13;2.50;;;21.80;99.90;;;;;;5101378;28;20170;-87
2023/07/24 02:38:17;;;;;;;2.83;2.33;;;21.50;99.90;;;;;;5105280;28;20209;-86
2023/07/24 02:40:44;;;;;;;3.33;2.63;;;21.40;99.90;;;;;;5104167;28;20182;-87
2023/07/24 02:43:10;;;;;;;3.90;2.60;;;21.40;99.90;;;;;;5101352;28;20174;-87
2023/07/24 02:45:36;;;;;;;4.13;2.50;;;21.50;99.90;;;;;;5103494;28;20232;-87
2023/07/24 02:48:02;;;;;;;4.40;2.63;;;21.50;99.90;;;;;;5101439;28;20265;-86
2023/07/24 02:50:32;;;;;;;2.67;2.43;;;21.40;99.90;;;;;;5101444;28;20275;-87
2023/07/24 02:52:58;;;;;;;2.83;2.40;;;21.40;99.90;;;;;;5103073;28;20458;-87
2023/07/24 02:55:24;;;;;;;3.60;2.60;;;21.60;99.90;;;;;;5101545;28;20178;-86
2023/07/24 02:57:53;;;;;;;6.43;2.73;;;21.70;99.90;;;;;;5102876;28;20427;-86
2023/07/24 03:00:19;;;;;;;3.73;2.93;;;22.00;99.90;;;;;;5104756;28;20574;-86
2023/07/24 03:02:45;;;;;;;3.00;2.53;;;22.10;99.90;;;;;;5103706;28;20185;-87
2023/07/24 03:05:10;;;;;;;2.70;2.50;;;22.20;99.90;;;;;;5102318;28;20268;-87
2023/07/24 03:07:39;;;;;;;3.47;2.50;;;22.30;99.70;;;;;;5105951;28;20178;-87
2023/07/24 03:10:05;;;;;;;3.60;2.43;;;22.20;99.90;;;;;;5106093;28;20175;-86
2023/07/24 03:12:31;;;;;;;4.20;2.27;;;22.20;99.90;;;;;;5107952;28;20277;-87
2023/07/24 03:14:56;;;;;;;5.13;2.80;;;22.20;99.90;;;;;;5108235;28;20296;-87
2023/07/24 03:17:23;;;;;;;3.10;2.70;;;22.30;99.90;;;;;;5104009;28;20278;-88
2023/07/24 03:19:49;;;;;;;3.47;2.93;;;22.40;99.90;;;;;;5114537;28;20265;-88
2023/07/24 03:22:15;;;;;;;2.73;2.53;;;22.30;99.90;;;;;;5104614;28;20175;-88
2023/07/24 03:24:41;;;;;;;2.80;2.60;;;22.30;99.90;;;;;;5108876;28;20183;-88
2023/07/24 03:27:06;;;;;;;3.00;2.50;;;22.10;99.90;;;;;;5106330;28;20173;-88
2023/07/24 03:29:32;;;;;;;3.53;2.80;;;22.30;99.90;;;;;;5103440;28;20243;-88
2023/07/24 03:31:59;;;;;;;4.80;2.60;;;22.50;99.90;;;;;;5106522;28;20177;-88
2023/07/24 03:34:25;;;;;;;3.30;2.70;;;22.60;99.40;;;;;;5104175;28;20194;-88
2023/07/24 03:36:50;;;;;;;3.27;2.67;;;22.60;99.90;;;;;;5105900;28;20248;-88
2023/07/24 03:39:18;;;;;;;3.10;2.77;;;22.40;99.90;;;;;;5101216;28;20176;-88
2023/07/24 03:41:45;;;;;;;2.93;2.67;;;22.50;99.30;;;;;;5102158;28;20179;-88
2023/07/24 03:44:11;;;;;;;3.03;2.73;;;22.70;99.50;;;;;;5103076;28;20173;-88
2023/07/24 03:46:37;;;;;;;2.63;2.33;;;22.60;99.90;;;;;;5101713;28;20214;-88
2023/07/24 03:49:02;;;;;;;4.37;2.70;;;22.30;99.90;;;;;;5103695;28;20191;-88
2023/07/24 03:51:28;;;;;;;3.10;2.70;;;22.20;99.90;;;;;;5101660;28;20178;-88
2023/07/24 03:53:53;;;;;;;3.47;2.60;;;22.20;99.90;;;;;;5103120;28;20227;-88
2023/07/24 03:56:19;;;;;;;2.80;2.60;;;22.00;99.90;;;;;;5102492;28;20218;-88
2023/07/24 03:58:45;;;;;;;3.10;2.67;;;21.60;99.90;;;;;;5104404;28;20217;-87
2023/07/24 04:01:12;;;;;;;3.57;2.87;;;21.60;99.90;;;;;;5102744;28;20209;-88
2023/07/24 04:03:40;;;;;;;3.63;2.50;;;21.90;99.90;;;;;;5105218;28;20182;-88
2023/07/24 04:06:06;;;;;;;2.80;2.50;;;22.20;99.90;;;;;;5105550;28;20671;-88
2023/07/24 04:08:32;;;;;;;2.83;2.60;;;22.40;99.90;;;;;;5101981;28;20174;-88
2023/07/24 04:10:58;;;;;;;3.37;2.87;;;22.50;99.90;;;;;;5104617;28;20180;-88
2023/07/24 04:13:23;;;;;;;3.13;2.73;;;22.60;99.90;;;;;;5103800;28;20183;-88
2023/07/24 04:15:50;;;;;;;5.87;2.80;;;22.40;99.90;;;;;;5104768;28;20239;-88
2023/07/24 04:18:15;;;;;;;3.07;2.77;;;22.60;99.90;;;;;;5102505;28;20639;-88
2023/07/24 04:20:41;;;;;;;3.53;2.80;;;22.70;99.90;;;;;;5105065;28;20280;-88
2023/07/24 04:23:07;;;;;;;3.93;2.47;;;22.60;99.90;;;;;;5103091;28;20210;-88
2023/07/24 04:25:35;;;;;;;2.90;2.60;;;22.50;99.90;;;;;;5106287;28;20309;-88
2023/07/24 04:28:01;;;;;;;2.70;2.50;;;22.60;99.90;;;;;;5101118;28;20171;-88
2023/07/24 04:30:32;;;;;;;3.23;2.80;;;22.70;99.40;;;;;;5100847;28;20178;-88
2023/07/24 04:32:58;;;;;;;3.63;2.70;;;22.60;99.90;;;;;;5102541;28;20273;-88
2023/07/24 04:35:23;;;;;;;2.60;2.40;;;22.40;99.90;;;;;;5104886;28;20275;-88
2023/07/24 04:37:51;;;;;;;3.57;2.50;;;22.50;99.90;;;;;;5101272;28;20287;-88
2023/07/24 04:40:19;;;;;;;4.10;2.73;;;22.70;99.90;;;;;;5104198;28;20186;-88
2023/07/24 04:42:45;;;;;;;3.27;2.70;;;22.50;99.90;;;;;;5102909;28;20208;-88
2023/07/24 04:45:10;;;;;;;3.30;3.00;;;22.50;99.70;;;;;;5105698;28;20206;-88
2023/07/24 04:47:38;;;;;;;3.20;2.80;;;22.70;99.90;;;;;;5104277;28;20179;-88
2023/07/24 04:50:04;;;;;;;5.27;3.00;;;22.80;99.90;;;;;;5103692;28;20345;-88
2023/07/24 04:52:33;;;;;;;4.00;2.83;;;22.50;99.90;;;;;;5114673;28;20174;-88
2023/07/24 04:54:59;;;;;;;4.70;3.17;;;22.50;99.90;;;;;;5101951;28;20242;-87
2023/07/24 04:57:25;;;;;;;3.27;2.80;;;22.10;99.90;;;;;;5103604;28;20190;-88
2023/07/24 04:59:50;;;;;;;4.20;2.77;;;22.40;99.90;;;;;;5101285;28;20294;-88
2023/07/24 05:02:16;;;;;;;3.03;2.63;;;22.60;99.90;;;;;;5102441;28;20178;-88
2023/07/24 05:04:42;;;;;;;3.83;2.67;;;22.80;99.00;;;;;;5104499;28;20654;-88
2023/07/24 05:07:08;;;;;;;3.57;2.80;;;22.80;99.70;;;;;;5099170;28;20241;-87
2023/07/24 05:09:34;;;;;;;3.50;2.63;;;22.90;98.50;;;;;;5100148;28;20452;-88
2023/07/24 05:12:00;;;;;;;2.60;2.40;;;23.00;98.10;;;;;;5104192;28;20210;-88
2023/07/24 05:14:25;;;;;;;3.73;2.90;;;23.10;98.00;;;;;;5098963;28;20285;-87
2023/07/24 05:16:52;;;;;;;4.53;2.90;;;22.60;99.90;;;;;;5103894;28;20189;-87
2023/07/24 05:19:18;;;;;;;3.60;2.80;;;22.20;99.90;;;;;;5099147;28;20476;-88
2023/07/24 05:21:43;;;;;;;3.63;2.80;;;22.30;99.90;;;;;;5100291;28;20183;-87
2023/07/24 05:24:15;;;;;;;4.83;3.00;;;22.20;99.90;;;;;;5099694;28;20193;-88
2023/07/24 05:26:41;;;;;;;3.47;3.00;;;22.50;99.90;;;;;;5101804;28;20569;-88
2023/07/24 05:29:07;;;;;;;3.27;2.70;;;22.60;99.90;;;;;;5101355;28;20602;-88
2023/07/24 05:31:35;;;;;;;3.17;2.70;;;22.80;99.20;;;;;;5100231;28;20188;-88
2023/07/24 05:34:03;;;;;;;3.87;3.10;;;23.00;98.70;;;;;;5102434;28;20186;-87
2023/07/24 05:36:29;;;;;;;3.00;2.60;;;23.00;98.50;;;;;;5099699;28;20193;-88
2023/07/24 05:38:56;;;;;;;2.97;2.60;;;23.10;98.60;;;;;;5101321;28;20178;-88
2023/07/24 05:41:21;;;;;;;4.30;3.10;;;23.20;97.90;;;;;;5099190;28;20232;-89
2023/07/24 05:43:47;;;;;;;2.53;2.33;;;23.20;98.00;;;;;;5100931;28;20182;-88
2023/07/24 05:46:13;;;;;;;4.47;2.60;;;23.30;97.40;;;;;;5097699;28;20221;-88
2023/07/24 05:48:38;;;;;;;3.67;2.80;;;23.30;97.20;;;;;;5099901;28;20458;-88
2023/07/24 05:51:04;;;;;;;3.50;2.53;;;23.40;96.80;;;;;;5098877;28;20471;-88
2023/07/24 05:53:30;;;;;;;3.23;2.93;;;23.40;97.00;;;;;;5101482;28;20192;-88
2023/07/24 05:56:00;;;;;;;3.77;2.97;;;23.40;97.30;;;;;;5097191;28;20639;-88
2023/07/24 05:58:30;;;;;;;3.40;2.70;;;23.30;96.80;;;;;;5101763;28;20576;-89
2023/07/24 06:00:55;;;;;;;3.83;3.00;;;23.40;96.60;;;;;;5099581;28;20189;-88
2023/07/24 06:03:22;;;;;;;3.03;2.73;;;23.30;96.90;;;;;;5098397;28;20170;-89
2023/07/24 06:05:55;;;;;;;3.10;2.80;;;23.30;96.90;;;;;;5098961;28;20458;-88
2023/07/24 06:08:21;;;;;;;3.70;2.73;;;23.20;97.90;;;;;;5099209;28;20179;-88
2023/07/24 06:10:49;;;;;;;4.47;2.77;;;23.20;97.40;;;;;;5097654;28;20244;-88
2023/07/24 06:13:16;;;;;;;2.93;2.70;;;23.30;97.20;;;;;;5100369;28;20174;-88
2023/07/24 06:15:45;;;;;;;3.67;2.87;;;23.40;97.10;;;;;;5099524;28;20414;-89
2023/07/24 06:18:10;;;;;;;3.70;2.90;;;23.40;96.50;;;;;;5102659;28;20546;-88
2023/07/24 06:20:36;;;;;;;3.20;2.80;;;23.50;96.70;;;;;;5098740;28;20834;-89
2023/07/24 06:23:03;;;;;;;3.90;3.10;;;23.40;96.50;;;;;;5096924;28;20524;-90
2023/07/24 06:25:30;;;;;;;3.70;2.90;;;23.40;97.20;;;;;;5105851;28;20217;-89
2023/07/24 06:27:56;;;;;;;3.03;2.83;;;23.50;97.20;;;;;;5097090;28;20186;-89
2023/07/24 06:30:22;;;;;;;3.00;2.70;;;23.50;96.60;;;;;;5099738;28;20209;-89
2023/07/24 06:32:48;;;;;;;4.23;3.00;;;23.50;96.60;;;;;;5097527;28;20204;-89
2023/07/24 06:35:14;;;;;;;4.23;2.90;;;23.50;96.10;;;;;;5101373;28;20252;-89
2023/07/24 06:37:43;;;;;;;3.80;3.00;;;23.50;97.60;;;;;;5101788;28;20220;-88
2023/07/24 06:40:09;;;;;;;3.20;2.90;;;23.50;96.40;;;;;;5096527;28;20534;-89
2023/07/24 06:42:35;;;;;;;5.47;3.33;;;23.40;96.80;;;;;;5094386;28;20174;-89
2023/07/24 06:45:02;;;;;;;4.77;3.50;;;23.50;96.50;;;;;;5097245;28;20199;-91
2023/07/24 06:47:27;;;;;;;5.17;3.07;;;23.50;96.60;;;;;;5099333;28;20280;-89
2023/07/24 06:49:53;;;;;;;4.90;3.10;;;23.50;96.60;;;;;;5096969;28;20442;-89
2023/07/24 06:52:18;;;;;;;3.30;2.77;;;23.60;96.20;;;;;;5098147;28;20242;-89
2023/07/24 06:54:48;;;;;;;3.97;3.10;;;23.60;96.80;;;;;;5094958;28;20181;-89
2023/07/24 06:57:14;;;;;;;4.33;3.30;;;23.60;96.50;;;;;;5096318;28;20178;-89
2023/07/24 06:59:39;;;;;;;4.90;2.90;;;23.50;96.70;;;;;;5093137;28;20240;-89
2023/07/24 07:02:05;;;;;;;3.57;3.00;;;23.50;96.80;;;;;;5095988;28;20170;-89
2023/07/24 07:04:31;;;;;;;3.90;3.50;;;23.50;98.00;;;;;;5096610;28;20171;-89
2023/07/24 07:06:57;;;;;;;3.73;3.00;;;23.50;96.40;;;;;;5095674;28;20361;-89
2023/07/24 07:09:22;;;;;;;3.33;3.03;;;23.60;96.50;;;;;;5098377;28;20274;-89
2023/07/24 07:11:51;;;;;;;4.40;2.97;;;23.60;96.50;;;;;;5096594;28;20436;-89
2023/07/24 07:14:19;;;;;;;3.73;2.97;;;23.70;96.20;;;;;;5098291;28;20170;-88
2023/07/24 07:16:47;;;;;;;3.47;2.80;;;23.70;96.00;;;;;;5095569;28;20339;-88
2023/07/24 07:19:13;;;;;;;3.10;2.80;;;23.70;95.80;;;;;;5097947;28;20202;-89
2023/07/24 07:21:38;;;;;;;4.23;2.90;;;23.80;96.40;;;;;;5095862;28;20247;-89
2023/07/24 07:24:07;;;;;;;3.97;2.77;;;23.90;96.40;;;;;;5096498;28;20557;-89
2023/07/24 07:26:33;;;;;;;4.93;3.37;;;23.90;95.70;;;;;;5097705;28;20304;-89
2023/07/24 07:28:59;;;;;;;3.57;2.90;;;23.90;95.80;;;;;;5096808;28;20281;-89
2023/07/24 07:31:25;;;;;;;3.70;2.80;;;23.90;96.30;;;;;;5094045;28;20189;-89
2023/07/24 07:33:51;;;;;;;4.33;3.23;;;23.90;96.30;;;;;;5094180;28;20191;-88
2023/07/24 07:36:17;;;;;;;3.27;2.97;;;23.90;95.50;;;;;;5095313;28;20238;-89
2023/07/24 07:38:43;;;;;;;3.27;2.70;;;23.90;96.00;;;;;;5093037;28;20178;-88
2023/07/24 07:41:09;;;;;;;4.80;3.10;;;23.90;95.50;;;;;;5095307;28;20346;-89
2023/07/24 07:43:36;;;;;;;3.30;2.60;;;24.00;95.40;;;;;;5094008;28;20178;-88
2023/07/24 07:46:02;;;;;;;3.83;2.97;;;24.00;95.10;;;;;;5099069;28;20241;-89
2023/07/24 07:48:29;;;;;;;8.37;2.80;;;24.00;95.10;;;;;;5098981;28;20183;-88
2023/07/24 07:50:54;;;;;;;4.47;2.63;;;24.00;95.10;;;;;;5101078;28;20186;-89
2023/07/24 07:53:20;;;;;;;4.20;2.53;;;24.00;95.20;;;;;;5098894;28;20179;-88
2023/07/24 07:55:46;;;;;;;6.07;2.97;;;24.00;95.30;;;;;;5100714;28;20205;-89
2023/07/24 07:58:11;;;;;;;3.20;2.70;;;24.00;94.90;;;;;;5097119;28;20183;-88
2023/07/24 08:00:39;;;;;;;5.40;2.77;;;24.00;95.00;;;;;;5103015;28;20182;-89
2023/07/24 08:03:05;;;;;;;4.87;2.90;;;24.00;95.00;;;;;;5100896;28;20178;-88
2023/07/24 08:05:32;;;;;;;4.37;2.87;;;24.00;95.00;;;;;;5095943;28;20214;-89
2023/07/24 08:07:58;;;;;;;4.63;2.73;;;23.90;95.20;;;;;;5099863;28;20178;-88
2023/07/24 08:10:24;;;;;;;6.23;3.13;;;23.90;95.40;;;;;;5099515;28;20182;-88
2023/07/24 08:12:49;;;;;;;4.20;2.87;;;23.90;95.20;;;;;;5093100;28;20537;-89
2023/07/24 08:15:15;;;;;;;3.30;2.80;;;23.90;95.30;;;;;;5096381;28;20231;-87
2023/07/24 08:17:42;;;;;;;3.60;2.80;;;24.00;95.40;;;;;;5096908;28;20228;-87
2023/07/24 08:20:10;;;;;;;5.53;3.17;;;24.00;95.20;;;;;;5097297;28;20340;-87
2023/07/24 08:22:36;;;;;;;4.30;3.00;;;24.00;95.00;;;;;;5098402;28;20178;-88
2023/07/24 08:25:02;;;;;;;3.20;2.90;;;24.10;94.90;;;;;;5097691;28;20251;-88
2023/07/24 08:27:29;;;;;;;4.83;3.30;;;24.10;94.70;;;;;;5098403;28;20375;-88
2023/07/24 08:29:55;;;;;;;4.77;2.80;;;24.30;94.70;;;;;;5098915;28;20210;-88
2023/07/24 08:32:20;;;;;;;4.27;2.90;;;24.40;94.30;;;;;;5094726;28;20198;-87
2023/07/24 08:34:46;;;;;;;3.03;2.73;;;24.40;94.20;;;;;;5095484;28;20483;-87
2023/07/24 08:37:12;;;;;;;5.43;3.00;;;24.50;94.10;;;;;;5094456;28;20563;-87
2023/07/24 08:39:38;;;;;;;4.82;2.83;;;24.50;93.90;;;;;;5101367;28;20587;-87
2023/07/24 08:42:14;;;;;;;4.18;2.97;;;24.60;93.80;;;;;;5097745;27;20335;-86
2023/07/24 08:44:43;;;;;;;4.25;2.90;;;24.60;93.80;;;;;;5095202;28;20544;-87
2023/07/24 08:47:11;;;;;;;5.03;3.00;;;24.70;93.70;;;;;;5097106;28;20204;-87
2023/07/24 08:49:41;;;;;;;3.03;2.72;;;24.80;93.40;;;;;;5094748;28;20170;-87
2023/07/24 08:52:11;;;;;;;3.65;2.90;;;24.90;93.60;;;;;;5095790;28;20206;-88
2023/07/24 08:54:40;;;;;;;3.50;2.90;;;24.80;93.30;;;;;;5093190;28;20201;-87
2023/07/24 08:57:09;;;;;;;3.77;2.83;;;24.70;93.30;;;;;;5098246;28;20356;-87
2023/07/24 08:59:35;;;;;;;4.20;3.17;;;24.60;93.70;;;;;;5095381;28;20270;-88
2023/07/24 09:02:01;;;;;;;3.77;3.00;;;24.70;94.10;;;;;;5097868;28;20383;-87
2023/07/24 09:04:27;;;;;;;3.30;2.83;;;24.60;93.60;;;;;;5094251;28;20321;-87
2023/07/24 09:06:56;;;;;;;3.57;2.70;;;24.50;93.70;;;;;;5091984;28;20412;-87
2023/07/24 09:09:29;;;;;;;3.23;2.80;;;24.50;93.90;;;;;;5101419;28;20186;-87
2023/07/24 09:11:55;;;;;;;3.00;2.67;;;24.50;93.70;;;;;;5092405;28;20170;-86
2023/07/24 09:14:22;;;;;;;4.73;2.63;;;24.60;93.60;;;;;;5096574;28;20292;-86
2023/07/24 09:16:48;;;;;;;2.90;2.60;;;24.60;93.60;;;;;;5096576;28;20339;-87
2023/07/24 09:19:18;;;;;;;6.20;2.90;;;24.70;93.60;;;;;;5094096;28;20293;-87
2023/07/24 09:21:44;;;;;;;7.33;2.73;;;24.70;93.70;;;;;;5093767;28;20486;-86
2023/07/24 09:24:14;;;;;;;3.73;2.50;;;24.60;93.60;;;;;;5095413;28;20190;-86
2023/07/24 09:26:52;;;;;;;3.90;2.40;;;24.60;93.60;;;;;;5096129;28;20198;-86
2023/07/24 09:29:19;;;;;;;3.30;2.70;;;24.60;93.70;;;;;;5101985;28;20170;-86
2023/07/24 09:31:45;;;;;;;4.17;2.57;;;24.60;93.70;;;;;;5094144;28;20606;-86
2023/07/24 09:34:16;;;;;;;6.33;2.80;;;24.60;93.50;;;;;;5094024;28;20572;-86
2023/07/24 09:36:42;;;;;;;4.60;2.77;;;24.60;93.60;;;;;;5094896;28;20191;-86
2023/07/24 09:39:10;;;;;;;3.03;2.57;;;24.60;93.50;;;;;;5094221;28;20363;-86
2023/07/24 09:41:36;;;;;;;6.47;2.53;;;24.60;93.50;;;;;;5097714;28;20189;-87
2023/07/24 09:44:11;;;;;;;5.00;2.47;;;24.60;93.30;;;;;;5095193;28;20178;-86
2023/07/24 09:46:37;;;;;;;3.47;2.60;;;24.60;93.40;;;;;;5100694;28;20214;-87
2023/07/24 09:49:03;;;;;;;3.30;2.63;;;24.70;93.30;;;;;;5097578;28;20174;-86
2023/07/24 09:51:30;;;;;;;4.20;2.50;;;24.60;93.10;;;;;;5095285;28;20270;-87
2023/07/24 09:54:04;;;;;;;4.47;2.80;;;24.60;93.00;;;;;;5098836;28;20178;-86
2023/07/24 09:56:32;;;;;;;4.83;2.80;;;24.70;93.10;;;;;;5091820;28;20192;-87
2023/07/24 09:59:00;;;;;;;5.63;2.50;;;24.70;93.00;;;;;;5094861;28;20441;-86
2023/07/24 10:01:33;;;;;;;3.40;2.60;;;24.70;93.30;;;;;;5094587;28;20243;-85
2023/07/24 10:03:59;;;;;;;3.90;2.40;;;24.60;93.50;;;;;;5093901;28;20194;-85
2023/07/24 10:06:27;;;;;;;2.73;2.43;;;24.60;93.20;;;;;;5091624;28;20641;-85
2023/07/24 10:08:53;;;;;;;3.67;2.57;;;24.70;93.00;;;;;;5096094;28;20209;-84
2023/07/24 10:11:20;;;;;;;7.10;2.60;;;24.70;92.90;;;;;;5103964;28;20271;-84
2023/07/24 10:13:46;;;;;;;4.33;2.43;;;24.70;93.00;;;;;;5093976;28;20257;-84
2023/07/24 10:16:13;;;;;;;4.07;2.77;;;24.70;93.20;;;;;;5095157;28;20203;-85
2023/07/24 10:18:47;;;;;;;3.03;2.57;;;24.60;93.60;;;;;;5099134;28;20182;-85
2023/07/24 10:21:13;;;;;;;2.87;2.20;;;24.60;93.20;;;;;;5098995;28;20178;-85
2023/07/24 10:23:44;;;;;;;3.40;2.47;;;24.70;92.90;;;;;;5097161;28;20175;-85
2023/07/24 10:26:10;;;;;;;3.80;2.70;;;24.80;92.70;;;;;;5099718;28;20607;-85
2023/07/24 10:28:40;;;;;;;4.00;2.60;;;24.90;92.60;;;;;;5095126;28;20363;-85
2023/07/24 10:31:21;;;;;;;5.63;2.70;;;24.90;92.70;;;;;;5099095;28;20521;-85
2023/07/24 10:33:47;;;;;;;4.53;2.50;;;24.90;92.60;;;;;;5098542;28;20204;-85
2023/07/24 10:36:19;;;;;;;4.60;2.73;;;24.90;92.40;;;;;;5093111;28;20301;-84
2023/07/24 10:38:45;;;;;;;5.13;2.43;;;24.90;92.30;;;;;;5093862;28;20648;-84
2023/07/24 10:41:11;;;;;;;4.07;3.20;;;24.90;92.40;;;;;;5102502;28;20190;-85
2023/07/24 10:43:42;;;;;;;2.83;2.63;;;24.90;92.30;;;;;;5097178;28;20209;-84
2023/07/24 10:46:08;;;;;;;3.97;2.93;;;24.90;92.30;;;;;;5095643;28;20392;-85
2023/07/24 10:48:34;;;;;;;3.00;2.70;;;24.90;92.40;;;;;;5094795;28;20318;-85
2023/07/24 10:51:08;;;;;;;3.03;2.67;;;24.90;92.70;;;;;;5094908;28;20235;-85
2023/07/24 10:53:36;;;;;;;4.40;2.80;;;24.90;92.60;;;;;;5091784;28;20484;-84
2023/07/24 10:56:03;;;;;;;3.37;2.70;;;24.90;92.40;;;;;;5095701;28;20343;-86
2023/07/24 10:58:32;;;;;;;4.53;2.90;;;24.90;92.80;;;;;;5093036;28;20179;-84
2023/07/24 11:00:59;;;;;;;4.60;2.67;;;24.80;93.50;;;;;;5095779;28;20174;-84
2023/07/24 11:03:28;;;;;;;5.33;2.97;;;24.70;93.20;;;;;;5093609;28;20174;-85
2023/07/24 11:05:54;;;;;;;5.90;2.77;;;24.70;93.80;;;;;;5090399;28;20753;-86
2023/07/24 11:08:20;;;;;;;3.23;2.87;;;24.80;93.00;;;;;;5092444;28;20178;-85
2023/07/24 11:10:56;;;;;;;3.63;2.70;;;24.80;92.80;;;;;;5099759;28;20266;-84
2023/07/24 11:13:24;;;;;;;3.47;2.90;;;24.90;92.70;;;;;;5099609;28;20166;-84
2023/07/24 11:15:51;;;;;;;4.40;2.80;;;24.80;92.60;;;;;;5093872;28;20189;-84
2023/07/24 11:18:21;;;;;;;3.57;2.37;;;24.90;92.40;;;;;;5095583;28;20196;-85
2023/07/24 11:20:50;;;;;;;2.87;2.67;;;25.00;92.30;;;;;;5099031;28;20209;-85
2023/07/24 11:23:16;;;;;;;5.10;3.17;;;25.00;92.20;;;;;;5096008;28;20244;-85
2023/07/24 11:25:43;;;;;;;3.50;2.80;;;24.90;92.70;;;;;;5099513;28;20238;-84
2023/07/24 11:28:11;;;;;;;4.03;2.70;;;24.60;93.20;;;;;;5097437;28;20178;-85
2023/07/24 11:30:37;;;;;;;4.43;2.70;;;24.60;93.70;;;;;;5097037;28;20206;-85
2023/07/24 11:33:04;;;;;;;3.67;3.17;;;24.70;93.60;;;;;;5095915;28;20277;-84
2023/07/24 11:35:30;;;;;;;3.03;2.73;;;24.70;93.70;;;;;;5093885;28;20178;-85
2023/07/24 11:37:56;;;;;;;4.37;3.00;;;24.80;93.30;;;;;;5093178;28;20239;-85
2023/07/24 11:40:41;;;;;;;4.23;2.87;;;24.80;94.60;;;;;;5100793;28;20193;-85
2023/07/24 11:43:24;;;;;;;3.70;2.70;;;24.90;94.30;;;;;;5096578;28;20563;-85
2023/07/24 11:45:53;;;;;;;4.63;3.23;;;24.90;92.90;;;;;;5101515;28;20201;-85
2023/07/24 11:48:23;;;;;;;3.03;2.70;;;24.90;93.30;;;;;;5098935;28;20255;-85
2023/07/24 11:50:54;;;;;;;2.90;2.57;;;24.90;93.00;;;;;;5100589;28;20171;-84
2023/07/24 11:53:28;;;;;;;3.60;2.80;;;24.90;92.70;;;;;;5099162;28;20186;-84
2023/07/24 11:55:59;;;;;;;4.17;2.90;;;24.80;92.90;;;;;;5097207;28;20182;-84
2023/07/24 11:58:29;;;;;;;2.70;2.50;;;24.80;92.80;;;;;;5102052;28;20194;-84
2023/07/24 12:00:58;;;;;;;3.00;2.47;;;24.90;92.60;;;;;;5097145;28;20194;-84
2023/07/24 12:03:28;;;;;;;3.03;2.60;;;24.90;92.50;;;;;;5099969;28;20511;-85
2023/07/24 12:05:56;;;;;;;3.97;3.00;;;24.90;92.40;;;;;;5093950;28;20218;-85
2023/07/24 12:08:30;;;;;;;3.10;2.80;;;24.90;92.40;;;;;;5099764;28;20186;-87
2023/07/24 12:11:02;;;;;;;3.80;2.97;;;24.80;92.70;;;;;;5094474;28;20171;-90
2023/07/24 12:13:32;;;;;;;4.10;2.87;;;24.70;93.00;;;;;;5103120;28;20179;-92
2023/07/24 12:15:57;;;;;;;2.97;2.67;;;24.70;92.90;;;;;;5098018;28;20193;-89
2023/07/24 12:18:26;;;;;;;5.13;2.60;;;24.70;92.50;;;;;;5097453;28;20329;-89
2023/07/24 12:20:51;;;;;;;3.63;2.60;;;24.80;91.30;;;;;;5097255;28;20244;-88
2023/07/24 12:23:17;;;;;;;4.63;2.70;;;24.70;92.20;;;;;;5095566;28;20186;-89
2023/07/24 12:25:43;;;;;;;2.93;2.63;;;24.70;92.20;;;;;;5094554;28;20199;-89
2023/07/24 12:28:08;;;;;;;3.93;2.60;;;24.80;92.20;;;;;;5097300;28;20154;-89
2023/07/24 12:30:34;;;;;;;3.33;2.70;;;24.70;91.20;;;;;;5094379;28;20214;-88
2023/07/24 12:33:00;;;;;;;4.10;2.40;;;24.70;91.80;;;;;;5096279;28;20622;-88
2023/07/24 12:35:25;;;;;;;2.97;2.50;;;24.60;91.60;;;;;;5096056;28;20187;-87
2023/07/24 12:37:51;;;;;;;2.27;2.03;;;24.60;91.50;;;;;;5096821;28;20340;-89
2023/07/24 12:40:17;;;;;;;3.37;2.47;;;24.30;88.70;;;;;;5093811;28;20217;-89
2023/07/24 12:42:43;;;;;;;2.90;2.10;;;23.60;92.00;;;;;;5097404;28;20182;-89
2023/07/24 12:45:09;;;;;;;3.77;2.00;;;23.00;93.30;;;;;;5106397;28;20201;-88
2023/07/24 12:47:35;;;;;;;2.93;1.90;;;22.60;95.80;;;;;;5095026;28;20229;-88